sensor_id;sensor_type;location;lat;lon;timestamp;P1;P2;P0
74432;PMS7003;62865;53.146;23.172;2022-10-22T00:04:23;11;6.5;5
74432;PMS7003;62865;53.146;23.172;2022-10-22T00:08:59;14.5;8.5;6.5
74432;PMS7003;62865;53.146;23.172;2022-10-22T00:14:17;8.6;7.8;5.6
74432;PMS7003;62865;53.146;23.172;2022-10-22T00:19:21;10.3;8;5.3
74432;PMS7003;62865;53.146;23.172;2022-10-22T00:24:05;8;7.3;6
74432;PMS7003;62865;53.146;23.172;2022-10-22T00:29:07;9;8;5.2
74432;PMS7003;62865;53.146;23.172;2022-10-22T00:34:03;9.4;7.8;5.6
74432;PMS7003;62865;53.146;23.172;2022-10-22T00:38:47;9;7.8;5
74432;PMS7003;62865;53.146;23.172;2022-10-22T00:43:54;12;8;7
74432;PMS7003;62865;53.146;23.172;2022-10-22T00:49:07;9;8.5;6
74432;PMS7003;62865;53.146;23.172;2022-10-22T00:54:23;13;10.5;7.5
74432;PMS7003;62865;53.146;23.172;2022-10-22T01:04:09;12;12;7
74432;PMS7003;62865;53.146;23.172;2022-10-22T01:08:57;12;12;7
74432;PMS7003;62865;53.146;23.172;2022-10-22T01:14:17;10.6;9.4;6
74432;PMS7003;62865;53.146;23.172;2022-10-22T01:19:57;10.2;8.8;6.4
74432;PMS7003;62865;53.146;23.172;2022-10-22T01:24:27;11;8.8;5.8
74432;PMS7003;62865;53.146;23.172;2022-10-22T01:28:49;10.6;8.2;6.2
74432;PMS7003;62865;53.146;23.172;2022-10-22T01:34:01;13.4;9.2;6.4
74432;PMS7003;62865;53.146;23.172;2022-10-22T01:39:09;11.8;11;6.8
74432;PMS7003;62865;53.146;23.172;2022-10-22T01:43:53;11.6;9;6
74432;PMS7003;62865;53.146;23.172;2022-10-22T01:49:21;12.2;10.8;7
74432;PMS7003;62865;53.146;23.172;2022-10-22T01:54:20;12.2;11;7.2
74432;PMS7003;62865;53.146;23.172;2022-10-22T01:59:19;12.5;11.3;7.5
74432;PMS7003;62865;53.146;23.172;2022-10-22T02:04:16;11.5;9.8;7
74432;PMS7003;62865;53.146;23.172;2022-10-22T02:09:23;7;7;5
74432;PMS7003;62865;53.146;23.172;2022-10-22T02:13:52;14.7;11;7
74432;PMS7003;62865;53.146;23.172;2022-10-22T02:19:16;12.3;10.7;7
74432;PMS7003;62865;53.146;23.172;2022-10-22T02:23:47;12.6;11.8;7.8
74432;PMS7003;62865;53.146;23.172;2022-10-22T02:29:24;12.6;11.4;7.4
74432;PMS7003;62865;53.146;23.172;2022-10-22T02:34:22;13;13;9
74432;PMS7003;62865;53.146;23.172;2022-10-22T02:39:01;15;14.3;8.7
74432;PMS7003;62865;53.146;23.172;2022-10-22T02:44:23;16;14.3;8.3
74432;PMS7003;62865;53.146;23.172;2022-10-22T02:49:19;16;14.3;8.3
74432;PMS7003;62865;53.146;23.172;2022-10-22T02:54:09;11;10;6
74432;PMS7003;62865;53.146;23.172;2022-10-22T02:58:47;14.3;11;6.7
74432;PMS7003;62865;53.146;23.172;2022-10-22T03:04:11;13.4;11.6;8.6
74432;PMS7003;62865;53.146;23.172;2022-10-22T03:09:01;12.8;12.2;7.8
74432;PMS7003;62865;53.146;23.172;2022-10-22T03:13:47;16.2;13.4;9.2
74432;PMS7003;62865;53.146;23.172;2022-10-22T03:19:01;12.4;11.6;8.8
74432;PMS7003;62865;53.146;23.172;2022-10-22T03:24:27;16.2;13;9.2
74432;PMS7003;62865;53.146;23.172;2022-10-22T03:29:19;16.8;13.6;9.6
74432;PMS7003;62865;53.146;23.172;2022-10-22T03:34:09;13.8;11.8;7.8
74432;PMS7003;62865;53.146;23.172;2022-10-22T03:38:47;14.3;12.3;9
74432;PMS7003;62865;53.146;23.172;2022-10-22T03:44:17;16;12.6;8.6
74432;PMS7003;62865;53.146;23.172;2022-10-22T03:49:27;16;13;9.3
74432;PMS7003;62865;53.146;23.172;2022-10-22T03:54:09;13.5;12.5;9.5
74432;PMS7003;62865;53.146;23.172;2022-10-22T03:58:57;19;17;10.5
74432;PMS7003;62865;53.146;23.172;2022-10-22T04:04:11;22;20;13
74432;PMS7003;62865;53.146;23.172;2022-10-22T04:09:15;17;14;10.5
74432;PMS7003;62865;53.146;23.172;2022-10-22T04:13:53;19;19;13
74432;PMS7003;62865;53.146;23.172;2022-10-22T04:19:17;16.2;13;8.8
74432;PMS7003;62865;53.146;23.172;2022-10-22T04:24:19;16.3;14.5;10
74432;PMS7003;62865;53.146;23.172;2022-10-22T04:29:25;14.5;13.5;10
74432;PMS7003;62865;53.146;23.172;2022-10-22T04:34:17;20;16.3;11
74432;PMS7003;62865;53.146;23.172;2022-10-22T04:39:25;20;16.3;11
74432;PMS7003;62865;53.146;23.172;2022-10-22T04:43:59;22;18.3;11.3
74432;PMS7003;62865;53.146;23.172;2022-10-22T04:48:47;22;18.3;11.3
74432;PMS7003;62865;53.146;23.172;2022-10-22T04:54:02;20.7;17;11.7
74432;PMS7003;62865;53.146;23.172;2022-10-22T04:59:27;21.3;17.5;11.8
74432;PMS7003;62865;53.146;23.172;2022-10-22T05:04:16;20.5;19;13
74432;PMS7003;62865;53.146;23.172;2022-10-22T05:09:08;20.8;19;12.5
74432;PMS7003;62865;53.146;23.172;2022-10-22T05:14:27;22.8;20.6;13.4
74432;PMS7003;62865;53.146;23.172;2022-10-22T05:19:20;26.3;22.3;13.7
74432;PMS7003;62865;53.146;23.172;2022-10-22T05:24:07;31;25;16
74432;PMS7003;62865;53.146;23.172;2022-10-22T05:29:07;24;21.5;14.5
74432;PMS7003;62865;53.146;23.172;2022-10-22T05:34:19;22;22;13
74432;PMS7003;62865;53.146;23.172;2022-10-22T05:39:03;26;23;15
74432;PMS7003;62865;53.146;23.172;2022-10-22T05:43:47;22;19;14
74432;PMS7003;62865;53.146;23.172;2022-10-22T05:49:10;24;21.8;13.8
74432;PMS7003;62865;53.146;23.172;2022-10-22T05:54:27;31;27;16
74432;PMS7003;62865;53.146;23.172;2022-10-22T05:58:57;31;27;16
74432;PMS7003;62865;53.146;23.172;2022-10-22T06:04:10;27.2;23.8;14.4
74432;PMS7003;62865;53.146;23.172;2022-10-22T06:08:47;22.7;20.3;12.7
74432;PMS7003;62865;53.146;23.172;2022-10-22T06:14:17;26.7;24.3;16.3
74432;PMS7003;62865;53.146;23.172;2022-10-22T06:19:25;26;24.5;16.5
74432;PMS7003;62865;53.146;23.172;2022-10-22T06:24:01;29.6;26.4;15.8
74432;PMS7003;62865;53.146;23.172;2022-10-22T06:28:47;29.8;26;16.8
74432;PMS7003;62865;53.146;23.172;2022-10-22T06:34:10;29;27.2;17.6
74432;PMS7003;62865;53.146;23.172;2022-10-22T06:39:15;32;26.4;17.2
74432;PMS7003;62865;53.146;23.172;2022-10-22T06:44:05;32;28;17.4
74432;PMS7003;62865;53.146;23.172;2022-10-22T06:48:57;34.8;30.6;19.6
74432;PMS7003;62865;53.146;23.172;2022-10-22T06:54:19;36.8;32.5;20
74432;PMS7003;62865;53.146;23.172;2022-10-22T06:59:21;35.7;32;17.3
74432;PMS7003;62865;53.146;23.172;2022-10-22T07:04:19;38.3;33;19.3
74432;PMS7003;62865;53.146;23.172;2022-10-22T07:09:29;41.7;35.3;20
74432;PMS7003;62865;53.146;23.172;2022-10-22T07:13:55;41.7;35.3;20
74432;PMS7003;62865;53.146;23.172;2022-10-22T07:18:47;41.7;35.3;20
74432;PMS7003;62865;53.146;23.172;2022-10-22T07:23:47;48;38;21
74432;PMS7003;62865;53.146;23.172;2022-10-22T07:29:29;38;32;20
74432;PMS7003;62865;53.146;23.172;2022-10-22T07:34:27;34.7;31.3;19.3
74432;PMS7003;62865;53.146;23.172;2022-10-22T07:39:09;38;35;21
74432;PMS7003;62865;53.146;23.172;2022-10-22T07:44:31;42;33.3;20
74432;PMS7003;62865;53.146;23.172;2022-10-22T07:49:17;37;32;19
74432;PMS7003;62865;53.146;23.172;2022-10-22T07:54:09;40.5;35;21
74432;PMS7003;62865;53.146;23.172;2022-10-22T07:59:11;38.5;33;20.5
74432;PMS7003;62865;53.146;23.172;2022-10-22T08:03:55;39;31;20
74432;PMS7003;62865;53.146;23.172;2022-10-22T08:08:45;39;33;22
74432;PMS7003;62865;53.146;23.172;2022-10-22T08:13:45;39;33;22
74432;PMS7003;62865;53.146;23.172;2022-10-22T08:19:05;39;32;21
74432;PMS7003;62865;53.146;23.172;2022-10-22T08:24:29;41;34;21
74432;PMS7003;62865;53.146;23.172;2022-10-22T08:29:21;43;34.3;21
74432;PMS7003;62865;53.146;23.172;2022-10-22T08:34:11;41.5;36;22
74432;PMS7003;62865;53.146;23.172;2022-10-22T08:39:11;40;32.7;21.3
74432;PMS7003;62865;53.146;23.172;2022-10-22T08:44:34;42;36;20
74432;PMS7003;62865;53.146;23.172;2022-10-22T08:49:31;41.5;36.5;21
74432;PMS7003;62865;53.146;23.172;2022-10-22T08:53:50;39.7;33.3;20.3
74432;PMS7003;62865;53.146;23.172;2022-10-22T08:58:48;39.7;33.3;20.3
74432;PMS7003;62865;53.146;23.172;2022-10-22T09:03:47;34;30;19
74432;PMS7003;62865;53.146;23.172;2022-10-22T09:14:18;32;28;18
74432;PMS7003;62865;53.146;23.172;2022-10-22T09:19:19;33.5;29.8;19
74432;PMS7003;62865;53.146;23.172;2022-10-22T09:24:19;33.7;29;17.3
74432;PMS7003;62865;53.146;23.172;2022-10-22T09:29:15;27.5;24.5;17
74432;PMS7003;62865;53.146;23.172;2022-10-22T09:34:09;27.5;24.5;17
74432;PMS7003;62865;53.146;23.172;2022-10-22T09:39:28;19;16.5;11.5
74432;PMS7003;62865;53.146;23.172;2022-10-22T09:43:53;22;19.2;13.4
74432;PMS7003;62865;53.146;23.172;2022-10-22T09:49:00;24.8;20.5;13
74432;PMS7003;62865;53.146;23.172;2022-10-22T09:53:46;22.5;19.5;14
74432;PMS7003;62865;53.146;23.172;2022-10-22T09:59:18;21;18;11
74432;PMS7003;62865;53.146;23.172;2022-10-22T10:04:25;21;18;11
74432;PMS7003;62865;53.146;23.172;2022-10-22T10:09:07;21;20;13.8
74432;PMS7003;62865;53.146;23.172;2022-10-22T10:14:10;23.7;20.7;14
74432;PMS7003;62865;53.146;23.172;2022-10-22T10:19:21;25;21;14
74432;PMS7003;62865;53.146;23.172;2022-10-22T10:29:11;25;21;14
74432;PMS7003;62865;53.146;23.172;2022-10-22T10:34:11;17.7;16.3;11.3
74432;PMS7003;62865;53.146;23.172;2022-10-22T10:39:07;24;20.3;13.3
74432;PMS7003;62865;53.146;23.172;2022-10-22T10:44:24;22;18;13
74432;PMS7003;62865;53.146;23.172;2022-10-22T10:49:07;22;20;13.5
74432;PMS7003;62865;53.146;23.172;2022-10-22T10:54:10;23.5;22;15.5
74432;PMS7003;62865;53.146;23.172;2022-10-22T10:59:44;22;20.2;12.8
74432;PMS7003;62865;53.146;23.172;2022-10-22T11:04:33;22.8;21.5;13.8
74432;PMS7003;62865;53.146;23.172;2022-10-22T11:09:09;24.2;21.6;13.8
74432;PMS7003;62865;53.146;23.172;2022-10-22T11:14:28;25.3;22.8;15.8
74432;PMS7003;62865;53.146;23.172;2022-10-22T11:19:29;26.4;24.6;16.6
74432;PMS7003;62865;53.146;23.172;2022-10-22T11:24:29;32;26.3;18
74432;PMS7003;62865;53.146;23.172;2022-10-22T11:28:47;24.4;22.8;14.8
74432;PMS7003;62865;53.146;23.172;2022-10-22T11:33:49;27;25;17.5
74432;PMS7003;62865;53.146;23.172;2022-10-22T11:49:16;32;28;17
74432;PMS7003;62865;53.146;23.172;2022-10-22T11:54:49;30.3;26.3;16.3
74432;PMS7003;62865;53.146;23.172;2022-10-22T11:59:29;29;26;17.5
74432;PMS7003;62865;53.146;23.172;2022-10-22T12:04:18;30;29;16
74432;PMS7003;62865;53.146;23.172;2022-10-22T12:09:15;25.5;23.5;16
74432;PMS7003;62865;53.146;23.172;2022-10-22T12:14:27;25.5;23;16
74432;PMS7003;62865;53.146;23.172;2022-10-22T12:19:04;28;25;15.5
74432;PMS7003;62865;53.146;23.172;2022-10-22T12:24:01;26.7;25.7;16
74432;PMS7003;62865;53.146;23.172;2022-10-22T12:29:29;31;28;15
74432;PMS7003;62865;53.146;23.172;2022-10-22T12:34:19;27;25;15
74432;PMS7003;62865;53.146;23.172;2022-10-22T12:39:27;34.5;32;18.5
74432;PMS7003;62865;53.146;23.172;2022-10-22T12:44:10;31;27.5;17
74432;PMS7003;62865;53.146;23.172;2022-10-22T12:49:16;31;27.5;17
74432;PMS7003;62865;53.146;23.172;2022-10-22T12:54:27;29.3;28.7;17
74432;PMS7003;62865;53.146;23.172;2022-10-22T12:59:18;31;26.3;17
74432;PMS7003;62865;53.146;23.172;2022-10-22T13:04:19;29;28;17
74432;PMS7003;62865;53.146;23.172;2022-10-22T13:08:56;29.7;26.7;16
74432;PMS7003;62865;53.146;23.172;2022-10-22T13:14:01;29.7;26.7;16
74432;PMS7003;62865;53.146;23.172;2022-10-22T13:19:31;29.7;26.7;16
74432;PMS7003;62865;53.146;23.172;2022-10-22T13:23:51;30;26;17.3
74432;PMS7003;62865;53.146;23.172;2022-10-22T13:29:27;28;25;17
74432;PMS7003;62865;53.146;23.172;2022-10-22T13:34:27;28;25;17
74432;PMS7003;62865;53.146;23.172;2022-10-22T13:39:11;30.7;27.7;16.3
74432;PMS7003;62865;53.146;23.172;2022-10-22T13:44:27;30;29;17
74432;PMS7003;62865;53.146;23.172;2022-10-22T13:49:29;30;29;17
74432;PMS7003;62865;53.146;23.172;2022-10-22T13:54:29;28;25;17
74432;PMS7003;62865;53.146;23.172;2022-10-22T14:04:17;28;25;17
74432;PMS7003;62865;53.146;23.172;2022-10-22T14:09:25;36;32;18
74432;PMS7003;62865;53.146;23.172;2022-10-22T14:14:17;39;33.5;19.5
74432;PMS7003;62865;53.146;23.172;2022-10-22T14:18:47;35;32;19
74432;PMS7003;62865;53.146;23.172;2022-10-22T14:24:17;35;32;19
74432;PMS7003;62865;53.146;23.172;2022-10-22T14:29:03;34;28;16
74432;PMS7003;62865;53.146;23.172;2022-10-22T14:34:19;34.5;30;19
74432;PMS7003;62865;53.146;23.172;2022-10-22T14:39:13;34;30.5;20
74432;PMS7003;62865;53.146;23.172;2022-10-22T14:44:27;34;30.5;20
74432;PMS7003;62865;53.146;23.172;2022-10-22T14:53:55;34;30.5;20
74432;PMS7003;62865;53.146;23.172;2022-10-22T14:59:25;38;32;20
74432;PMS7003;62865;53.146;23.172;2022-10-22T15:04:17;36;30;21
74432;PMS7003;62865;53.146;23.172;2022-10-22T15:09:27;36.5;32;19.5
74432;PMS7003;62865;53.146;23.172;2022-10-22T15:14:03;40;33;20.5
74432;PMS7003;62865;53.146;23.172;2022-10-22T15:24:15;35;32;19
74432;PMS7003;62865;53.146;23.172;2022-10-22T15:29:17;38;32;20
74432;PMS7003;62865;53.146;23.172;2022-10-22T15:34:09;42.3;33;19.7
74432;PMS7003;62865;53.146;23.172;2022-10-22T15:43:55;37;31;20
74432;PMS7003;62865;53.146;23.172;2022-10-22T15:48:47;38.3;33.3;21.7
74432;PMS7003;62865;53.146;23.172;2022-10-22T15:53:52;37.3;32.8;21
74432;PMS7003;62865;53.146;23.172;2022-10-22T15:59:29;40;34;20.3
74432;PMS7003;62865;53.146;23.172;2022-10-22T16:04:21;45.5;35;21
74432;PMS7003;62865;53.146;23.172;2022-10-22T16:09:12;42;34.5;20.5
74432;PMS7003;62865;53.146;23.172;2022-10-22T16:14:09;47;35;23
74432;PMS7003;62865;53.146;23.172;2022-10-22T16:19:22;39.5;33;20.5
74432;PMS7003;62865;53.146;23.172;2022-10-22T16:24:27;42;34;22
74432;PMS7003;62865;53.146;23.172;2022-10-22T16:29:04;40;33.5;21
74432;PMS7003;62865;53.146;23.172;2022-10-22T16:34:13;45;37.7;23
74432;PMS7003;62865;53.146;23.172;2022-10-22T16:38:47;45.3;35.3;22.3
74432;PMS7003;62865;53.146;23.172;2022-10-22T16:44:17;38.7;33.3;21.7
74432;PMS7003;62865;53.146;23.172;2022-10-22T16:49:09;40;35;20.5
74432;PMS7003;62865;53.146;23.172;2022-10-22T16:54:19;44;36;22
74432;PMS7003;62865;53.146;23.172;2022-10-22T16:59:11;39;34;21.5
74432;PMS7003;62865;53.146;23.172;2022-10-22T17:09:17;46;37;22
74432;PMS7003;62865;53.146;23.172;2022-10-22T17:14:29;44.3;35.7;22.7
74432;PMS7003;62865;53.146;23.172;2022-10-22T17:19:03;44.8;35.8;22.8
74432;PMS7003;62865;53.146;23.172;2022-10-22T17:23:55;44.3;37;23
74432;PMS7003;62865;53.146;23.172;2022-10-22T17:29:07;43.3;35.8;21.8
74432;PMS7003;62865;53.146;23.172;2022-10-22T17:34:21;45.5;36.5;22.5
74432;PMS7003;62865;53.146;23.172;2022-10-22T17:39:29;48.3;37.8;22.8
74432;PMS7003;62865;53.146;23.172;2022-10-22T17:44:11;49.5;38;22.5
74432;PMS7003;62865;53.146;23.172;2022-10-22T17:49:29;43.5;35;21
74432;PMS7003;62865;53.146;23.172;2022-10-22T17:54:17;47.8;38;23.4
74432;PMS7003;62865;53.146;23.172;2022-10-22T17:59:12;45.5;36;23
74432;PMS7003;62865;53.146;23.172;2022-10-22T18:08:47;45.5;36;23
74432;PMS7003;62865;53.146;23.172;2022-10-22T18:14:09;42.5;34.5;22
74432;PMS7003;62865;53.146;23.172;2022-10-22T18:19:13;46.5;38.5;23.5
74432;PMS7003;62865;53.146;23.172;2022-10-22T18:23:53;45;37;23
74432;PMS7003;62865;53.146;23.172;2022-10-22T18:34:21;48;37;22
74432;PMS7003;62865;53.146;23.172;2022-10-22T18:39:10;48.3;38.3;22.3
74432;PMS7003;62865;53.146;23.172;2022-10-22T18:44:11;40.8;35.3;20.3
74432;PMS7003;62865;53.146;23.172;2022-10-22T18:49:05;43.5;34.5;21.5
74432;PMS7003;62865;53.146;23.172;2022-10-22T18:54:29;41.3;34.7;21.7
74432;PMS7003;62865;53.146;23.172;2022-10-22T18:58:53;44.7;35.3;22.3
74432;PMS7003;62865;53.146;23.172;2022-10-22T19:03:48;39.7;34;19.7
74432;PMS7003;62865;53.146;23.172;2022-10-22T19:09:27;46.3;35.7;21.3
74432;PMS7003;62865;53.146;23.172;2022-10-22T19:13:49;45.5;34.5;21.3
74432;PMS7003;62865;53.146;23.172;2022-10-22T19:18:58;44;35.3;21.7
74432;PMS7003;62865;53.146;23.172;2022-10-22T19:24:18;43.8;36.5;21.8
74432;PMS7003;62865;53.146;23.172;2022-10-22T19:29:21;46.3;37;21.7
74432;PMS7003;62865;53.146;23.172;2022-10-22T19:34:21;44.6;35.8;21.8
74432;PMS7003;62865;53.146;23.172;2022-10-22T19:39:18;43;34.3;21
74432;PMS7003;62865;53.146;23.172;2022-10-22T19:44:27;40.8;33.2;21
74432;PMS7003;62865;53.146;23.172;2022-10-22T19:48:48;44.4;35.6;21.6
74432;PMS7003;62865;53.146;23.172;2022-10-22T19:54:21;42.3;34;21
74432;PMS7003;62865;53.146;23.172;2022-10-22T19:59:03;42.4;34.6;21.2
74432;PMS7003;62865;53.146;23.172;2022-10-22T20:04:19;44;35;22
74432;PMS7003;62865;53.146;23.172;2022-10-22T20:09:17;46;35;21
74432;PMS7003;62865;53.146;23.172;2022-10-22T20:14:19;46.3;35;21
74432;PMS7003;62865;53.146;23.172;2022-10-22T20:19:09;43.3;36.3;20.3
74432;PMS7003;62865;53.146;23.172;2022-10-22T20:24:19;45.5;35.5;20
74432;PMS7003;62865;53.146;23.172;2022-10-22T20:29:25;46;36;21
74432;PMS7003;62865;53.146;23.172;2022-10-22T20:34:11;47.5;36.5;21.3
74432;PMS7003;62865;53.146;23.172;2022-10-22T20:38:47;47.5;36.5;21.3
74432;PMS7003;62865;53.146;23.172;2022-10-22T20:43:48;52;39;23
74432;PMS7003;62865;53.146;23.172;2022-10-22T20:48:48;50;39;23.5
74432;PMS7003;62865;53.146;23.172;2022-10-22T20:53:53;49.8;39.8;23
74432;PMS7003;62865;53.146;23.172;2022-10-22T20:59:07;50.7;40;22
74432;PMS7003;62865;53.146;23.172;2022-10-22T21:04:30;50;40;23
74432;PMS7003;62865;53.146;23.172;2022-10-22T21:09:27;50.7;39.3;22
74432;PMS7003;62865;53.146;23.172;2022-10-22T21:13:47;47;36;23
74432;PMS7003;62865;53.146;23.172;2022-10-22T21:19:29;49.5;36;22
74432;PMS7003;62865;53.146;23.172;2022-10-22T21:24:27;54.5;40.5;23.5
74432;PMS7003;62865;53.146;23.172;2022-10-22T21:29:29;49.5;39.5;22.5
74432;PMS7003;62865;53.146;23.172;2022-10-22T21:33:53;51.5;40.5;22.5
74432;PMS7003;62865;53.146;23.172;2022-10-22T21:38:53;53;41;23
74432;PMS7003;62865;53.146;23.172;2022-10-22T21:44:27;47.5;36.5;21.5
74432;PMS7003;62865;53.146;23.172;2022-10-22T21:49:19;47.5;36.5;21.5
74432;PMS7003;62865;53.146;23.172;2022-10-22T21:54:19;48.3;38;22
74432;PMS7003;62865;53.146;23.172;2022-10-22T21:59:19;47.7;37;20.7
74432;PMS7003;62865;53.146;23.172;2022-10-22T22:04:19;48;37;20
74432;PMS7003;62865;53.146;23.172;2022-10-22T22:09:09;44;35;19.5
74432;PMS7003;62865;53.146;23.172;2022-10-22T22:14:17;44.5;35.5;19.5
74432;PMS7003;62865;53.146;23.172;2022-10-22T22:19:27;39;32;18
74432;PMS7003;62865;53.146;23.172;2022-10-22T22:24:01;39;34;19
74432;PMS7003;62865;53.146;23.172;2022-10-22T22:29:13;39;34;19
74432;PMS7003;62865;53.146;23.172;2022-10-22T22:34:29;25.7;21;12
74432;PMS7003;62865;53.146;23.172;2022-10-22T22:39:20;20;17;11
74432;PMS7003;62865;53.146;23.172;2022-10-22T22:44:27;20;18;11
74432;PMS7003;62865;53.146;23.172;2022-10-22T22:48:48;18;16;11
74432;PMS7003;62865;53.146;23.172;2022-10-22T22:54:17;20.5;20.5;11
74432;PMS7003;62865;53.146;23.172;2022-10-22T22:59:27;19.5;16;8
74432;PMS7003;62865;53.146;23.172;2022-10-22T23:04:10;17;16;11
74432;PMS7003;62865;53.146;23.172;2022-10-22T23:09:08;17;16;11
74432;PMS7003;62865;53.146;23.172;2022-10-22T23:13:46;18.7;17.3;11.3
74432;PMS7003;62865;53.146;23.172;2022-10-22T23:19:18;17;17;11
74432;PMS7003;62865;53.146;23.172;2022-10-22T23:23:46;17.5;13.5;10
74432;PMS7003;62865;53.146;23.172;2022-10-22T23:29:20;16.7;15;8.7
74432;PMS7003;62865;53.146;23.172;2022-10-22T23:34:22;15.8;14.5;10
74432;PMS7003;62865;53.146;23.172;2022-10-22T23:39:24;21;18;11
74432;PMS7003;62865;53.146;23.172;2022-10-22T23:44:07;17.5;15.5;11
74432;PMS7003;62865;53.146;23.172;2022-10-22T23:49:23;16;13;10
74432;PMS7003;62865;53.146;23.172;2022-10-22T23:54:21;16.7;14;10
74432;PMS7003;62865;53.146;23.172;2022-10-22T23:59:21;19;15;10
